Pagina principală
METAR-TAF:

METAR-TAF

Aeroporturi :

Woodward, Oklahoma, Statele Unite ale Americii

Latitudine: 36-26-12N, longitudine: 099-31-16W, elevație: 667 m

Observații meteo curente

Raportul a fost făcut în urmă cu 22 de minute, la 05:15 UTC
Vânt 4 kt de la Vest
Temperatură 5°C
Umiditate 41%
Presiune 1021 hPa
Vizibilitate: 16.1 km
Cer senin

METAR: KWWR 240515Z AUTO 26004KT 10SM CLR 05/M07 A3016 RMK AO2

Ora: 23:37 (05:37 UTC)

Prognoză

Raportul a fost făcut în urmă cu 6 ore și 10 de minute, la 23:27 UTC
Prognoză valabilă de la 24 ora 00 UTC la 24 ora 24 UTC
Vânt 9 kt de la Vest/Nord-vest
Vizibilitate: 10 km
Cer senin
De la 24 ora 1500 UTC
Vânt 5 kt de la Vest/Sud-vest
Vizibilitate: 10 km
Cer senin
De la 24 ora 1800 UTC
Vânt 15 kt de la Sud/Sud-vest cu rafale de până la 22 kt
Vizibilitate: 10 km
Cer senin

TAF: KWWR 232327Z 2400/2424 29009KT P6SM SKC FM241500 24005KT P6SM SKC FM241800 21015G22KT P6SM SKC

Observații și prognoze meteo pentru peste 4.000 de aeroporturi (rapoarte METAR și TAF).

Stațiile disponibile sunt reprezentate pe hartă prin puncte galbene și roșii.

Țineți indicatorul mouse-ului pe punctul dorit pentru a vedea denumirea stației.

Apoi, faceți clic pentru a vedea observațiile și prognozele meteorologice.

Pentru a schimba harta: Pentru mărire, faceți clic pe butoanele verzi cu cruce neagră; pentru micșorare, pe butonul verde cu o liniuță; pentru hărți învecinate, pe săgețile verzi.


METAR-TAF: